logo tempoitalia

Diretta Meteo Roma-Ciampino, Italiavenerdì 23 luglio ore 20:50

Mappa
Sereno 27 °C Sereno 24 Ore: T.min 22 T.max 33
Ponente Sud-Ovest Km/h 7.4 Punto di rugiada: 15 °C Umidità: 47% Visibilità: 10 Km
Il sole sorge alle: 05:53 Il sole tramonta alle: 20:38
23 Luglio 2021 20:50 tempo osservato: Sereno Sereno 27 47 1014 vento: Nord SO 7.4
23 Luglio 2021 20:20 tempo osservato: Sereno Sereno 28 42 1014 vento: Nord SO 9.3
23 Luglio 2021 19:50 tempo osservato: Sereno Sereno 29 39 1014 vento: Nord O 11.1
23 Luglio 2021 19:20 tempo osservato: Sereno Sereno 30 37 1014 vento: Nord O/SO 13
23 Luglio 2021 17:50 tempo osservato: Sereno Sereno 32 33 1014 vento: Nord O 14.8
23 Luglio 2021 17:20 tempo osservato: Sereno Sereno 32 33 1014 vento: Nord O/NO 16.7
23 Luglio 2021 16:50 tempo osservato: Sereno Sereno 33 31 1014 vento: Nord O 20.3
23 Luglio 2021 16:20 tempo osservato: Sereno Sereno 33 33 1014 vento: Nord O/NO 18.5
23 Luglio 2021 15:50 tempo osservato: Sereno Sereno 32 35 1014 vento: Nord O/NO 20.3
23 Luglio 2021 15:20 tempo osservato: Sereno Sereno 33 33 1014 vento: Nord O 20.3
23 Luglio 2021 14:20 tempo osservato: Sereno Sereno 33 31 1015 vento: Nord O 20.3
23 Luglio 2021 13:50 tempo osservato: Sereno Sereno 33 27 1015 vento: Nord NO 22.2
23 Luglio 2021 13:20 tempo osservato: Sereno Sereno 33 31 1015 vento: Nord O 22.2
23 Luglio 2021 12:50 tempo osservato: Sereno Sereno 33 29 1015 vento: Nord O/NO 22.2
23 Luglio 2021 12:20 tempo osservato: Sereno Sereno 32 33 1015 vento: Nord NO 13
23 Luglio 2021 11:50 tempo osservato: Sereno Sereno 32 35 1015 vento: Nord O/NO 11.1
23 Luglio 2021 11:20 tempo osservato: Sereno Sereno 32 33 1015 vento: Nord N 9.3
23 Luglio 2021 10:50 tempo osservato: Sereno Sereno 31 37 1015 vento: Nord N 3.7
23 Luglio 2021 10:20 tempo osservato: Sereno Sereno 29 45 1015 vento: Nord O/SO 9.3
23 Luglio 2021 09:50 tempo osservato: Sereno Sereno 29 42 1016 vento: Nord N 5.5
23 Luglio 2021 09:20 tempo osservato: Sereno Sereno 28 48 1016 vento: Nord N 5.5
23 Luglio 2021 08:50 tempo osservato: Sereno Sereno 28 45 1015 vento: Nord N 3.7
23 Luglio 2021 08:20 tempo osservato: Sereno Sereno 27 50 1015 vento: Nord N 3.7
23 Luglio 2021 07:50 tempo osservato: Sereno Sereno 25 53 1015 vento: Nord N 3.7
23 Luglio 2021 07:20 tempo osservato: Sereno Sereno 24 57 1015 vento: Nord N 3.7
23 Luglio 2021 06:50 tempo osservato: Sereno Sereno 23 60 1015 vento: Nord N 5.5
23 Luglio 2021 06:20 tempo osservato: Sereno Sereno 22 68 1015 vento: Nord N 1.8
23 Luglio 2021 05:50 tempo osservato: Sereno Sereno 22 68 1015 vento: Nord N 3.7
23 Luglio 2021 05:20 tempo osservato: Sereno Sereno 22 68 1015 vento: Nord N 1.8
23 Luglio 2021 04:50 tempo osservato: Sereno Sereno 22 68 1015 vento: Nord N 3.7
23 Luglio 2021 04:20 tempo osservato: Sereno Sereno 23 64 1015 vento: Nord N 1.8
23 Luglio 2021 03:50 tempo osservato: Sereno Sereno 23 68 1015 vento: Nord N 1.8
23 Luglio 2021 03:20 tempo osservato: Sereno Sereno 23 68 1015 vento: Nord N 1.8
23 Luglio 2021 02:50 tempo osservato: Sereno Sereno 23 68 1016 vento: Nord N 1.8
23 Luglio 2021 02:20 tempo osservato: Sereno Sereno 24 64 1016 vento: Nord N 3.7
23 Luglio 2021 01:50 tempo osservato: Sereno Sereno 24 69 1016 vento: Nord N 3.7
23 Luglio 2021 01:20 tempo osservato: Sereno Sereno 24 69 1016 vento: Nord N 5.5
23 Luglio 2021 00:50 tempo osservato: Sereno Sereno 24 73 1016 vento: Nord S/SO 7.4
23 Luglio 2021 00:20 tempo osservato: Sereno Sereno 24 69 1016 vento: Nord S/SO 7.4
22 Luglio 2021 23:50 tempo osservato: Sereno Sereno 25 61 1016 vento: Nord S/SO 9.3
22 Luglio 2021 23:20 tempo osservato: Sereno Sereno 25 57 1016 vento: Nord S/SO 9.3
22 Luglio 2021 22:50 tempo osservato: Sereno Sereno 26 54 1016 vento: Nord S/SO 11.1
22 Luglio 2021 22:20 tempo osservato: Sereno Sereno 27 50 1016 vento: Nord S/SO 9.3
22 Luglio 2021 21:50 tempo osservato: Sereno Sereno 27 50 1016 vento: Nord S/SO 9.3